Time;durP1;ratioP1;P1;durP2;ratioP2;P2;SDS_P1;SDS_P2;PMS_P1;PMS_P2;Temp;Humidity;BMP_temperature;BMP_pressure;BME280_temperature;BME280_humidity;BME280_pressure;Samples;Min_cycle;Max_cycle;Signal;HPM_P1;HPM_P2
2021/09/30 00:00:41;;;;;;;1.13;0.82;;;8.60;99.90;;;;;;5152049;27;20097;-65
2021/09/30 00:03:08;;;;;;;0.60;0.60;;;8.60;99.90;;;;;;5158435;27;20022;-65
2021/09/30 00:05:34;;;;;;;4.32;0.88;;;8.60;99.90;;;;;;5128512;27;20018;-65
2021/09/30 00:07:59;;;;;;;0.60;0.60;;;8.50;99.90;;;;;;5147411;27;20038;-65
2021/09/30 00:10:26;;;;;;;1.38;0.82;;;8.50;99.90;;;;;;5143020;27;20027;-66
2021/09/30 00:13:06;;;;;;;0.77;0.77;;;8.40;99.90;;;;;;5122025;27;20149;-66
2021/09/30 00:32:34;;;;;;;0.70;0.70;;;8.40;99.90;;;;;;5135915;27;20042;-65
2021/09/30 00:46:05;;;;;;;2.75;0.98;;;8.70;99.90;;;;;;5151359;27;20803;-65
2021/09/30 00:51:18;;;;;;;0.85;0.80;;;8.70;99.90;;;;;;5127371;27;20118;-66
2021/09/30 02:40:10;;;;;;;0.88;0.88;;;8.60;99.90;;;;;;5149990;27;20033;-65
2021/09/30 02:59:21;;;;;;;2.85;1.45;;;8.40;99.90;;;;;;5140169;27;20029;-66
2021/09/30 03:01:48;;;;;;;1.50;1.00;;;8.40;99.90;;;;;;5148476;27;20371;-66
2021/09/30 03:04:17;;;;;;;0.80;0.70;;;8.40;99.90;;;;;;5149650;27;20071;-65
2021/09/30 03:06:44;;;;;;;2.17;1.17;;;8.30;99.90;;;;;;5141751;27;20050;-65
2021/09/30 03:09:12;;;;;;;1.70;0.90;;;8.30;99.90;;;;;;5147027;27;20074;-65
2021/09/30 03:11:40;;;;;;;0.70;0.70;;;8.20;99.90;;;;;;5138894;27;20022;-65
2021/09/30 03:14:08;;;;;;;0.75;0.75;;;8.30;99.90;;;;;;5148010;27;20025;-65
2021/09/30 03:16:45;;;;;;;1.10;1.00;;;8.40;99.90;;;;;;5137108;27;20030;-65
2021/09/30 03:19:21;;;;;;;1.08;1.00;;;8.50;99.90;;;;;;5129590;27;20033;-65
2021/09/30 03:24:34;;;;;;;1.17;0.82;;;8.50;99.90;;;;;;5142955;27;20462;-65
2021/09/30 03:27:01;;;;;;;0.60;0.60;;;8.40;99.90;;;;;;5157542;27;20019;-65
2021/09/30 03:29:28;;;;;;;0.70;0.70;;;8.40;99.90;;;;;;5127659;27;20022;-66
2021/09/30 03:31:54;;;;;;;0.80;0.80;;;8.40;99.90;;;;;;5142877;27;20401;-66
2021/09/30 03:34:20;;;;;;;0.80;0.80;;;8.40;99.90;;;;;;5142612;27;20027;-65
2021/09/30 03:36:45;;;;;;;0.85;0.70;;;8.30;99.90;;;;;;5142724;27;20051;-65
2021/09/30 03:39:15;;;;;;;0.70;0.70;;;8.20;99.90;;;;;;5146586;27;20694;-66
2021/09/30 03:41:42;;;;;;;1.33;1.05;;;8.20;99.90;;;;;;5148895;27;20023;-66
2021/09/30 03:44:11;;;;;;;1.63;0.90;;;8.30;99.90;;;;;;5130435;27;20216;-66
2021/09/30 03:46:38;;;;;;;2.38;1.65;;;8.20;99.90;;;;;;5114831;27;20052;-66
2021/09/30 03:49:09;;;;;;;1.10;1.00;;;8.20;99.90;;;;;;5121569;27;20023;-65
2021/09/30 03:51:52;;;;;;;0.68;0.68;;;8.20;99.90;;;;;;5154085;27;20026;-65
2021/09/30 03:54:31;;;;;;;0.60;0.60;;;8.20;99.90;;;;;;5147425;27;20056;-65
2021/09/30 03:59:31;;;;;;;0.90;0.82;;;8.20;99.90;;;;;;5146182;27;20114;-66
2021/09/30 04:02:02;;;;;;;0.88;0.88;;;8.30;99.90;;;;;;5147360;27;20037;-66
2021/09/30 04:04:30;;;;;;;0.80;0.80;;;8.30;99.90;;;;;;5151740;27;20286;-65
2021/09/30 04:06:58;;;;;;;2.67;1.10;;;8.30;99.90;;;;;;5125224;27;20027;-65
2021/09/30 04:09:28;;;;;;;0.73;0.73;;;8.20;99.90;;;;;;5138741;27;20019;-65
2021/09/30 04:11:59;;;;;;;0.70;0.70;;;8.20;99.90;;;;;;5145818;27;20023;-65
2021/09/30 04:14:25;;;;;;;1.10;0.80;;;8.30;99.90;;;;;;5118595;27;20023;-65
2021/09/30 04:16:51;;;;;;;5.10;1.23;;;8.10;99.90;;;;;;5136586;27;20400;-65
2021/09/30 04:19:19;;;;;;;2.00;0.95;;;8.20;99.90;;;;;;5150507;27;20014;-65
2021/09/30 04:21:45;;;;;;;0.68;0.68;;;8.20;99.90;;;;;;5114564;27;20054;-65
2021/09/30 04:24:12;;;;;;;1.27;1.15;;;8.20;99.90;;;;;;5118537;27;20015;-65
2021/09/30 04:26:38;;;;;;;0.68;0.68;;;8.20;99.90;;;;;;5148899;27;20046;-65
2021/09/30 04:29:04;;;;;;;1.27;0.93;;;8.10;99.90;;;;;;5136752;27;20031;-65
2021/09/30 04:31:29;;;;;;;1.05;0.80;;;8.20;99.90;;;;;;5142869;27;20014;-66
2021/09/30 04:33:55;;;;;;;3.03;1.00;;;8.10;99.90;;;;;;5144835;27;20034;-65
2021/09/30 04:36:21;;;;;;;0.80;0.80;;;8.20;99.90;;;;;;5153558;27;20050;-65
2021/09/30 04:38:48;;;;;;;0.70;0.70;;;8.10;99.90;;;;;;5143869;27;20023;-65
2021/09/30 04:41:15;;;;;;;0.75;0.75;;;8.10;99.90;;;;;;5139939;27;20034;-66
2021/09/30 04:43:41;;;;;;;0.80;0.80;;;8.00;99.90;;;;;;5143760;27;20094;-66
2021/09/30 04:46:06;;;;;;;0.63;0.63;;;7.90;99.90;;;;;;5125074;27;20114;-66
2021/09/30 04:48:32;;;;;;;1.30;1.10;;;8.10;99.90;;;;;;5134240;27;20035;-65
2021/09/30 04:50:58;;;;;;;1.98;1.17;;;8.00;99.90;;;;;;5135326;27;20624;-65
2021/09/30 04:53:23;;;;;;;0.73;0.70;;;8.00;99.90;;;;;;5153323;27;20106;-65
2021/09/30 04:55:49;;;;;;;1.55;1.08;;;7.90;99.90;;;;;;5167729;27;20022;-66
2021/09/30 04:58:15;;;;;;;0.95;0.88;;;8.00;99.90;;;;;;5141833;27;20031;-65
2021/09/30 05:00:40;;;;;;;2.15;1.50;;;8.00;99.90;;;;;;5150307;27;20413;-65
2021/09/30 05:03:06;;;;;;;1.40;1.00;;;7.90;99.90;;;;;;5150251;27;20055;-65
2021/09/30 05:05:31;;;;;;;0.70;0.70;;;8.00;99.90;;;;;;5152461;27;20038;-65
2021/09/30 05:07:57;;;;;;;0.70;0.70;;;8.00;99.90;;;;;;5137112;27;20419;-65
2021/09/30 05:10:30;;;;;;;0.65;0.65;;;7.90;99.90;;;;;;5117046;27;20030;-65
2021/09/30 05:12:59;;;;;;;0.70;0.70;;;7.90;99.90;;;;;;5113727;27;20019;-65
2021/09/30 05:15:25;;;;;;;1.30;1.15;;;7.90;99.90;;;;;;5142237;27;20023;-65
2021/09/30 05:17:50;;;;;;;0.80;0.80;;;7.90;99.90;;;;;;5159333;27;20026;-65
2021/09/30 05:20:16;;;;;;;0.70;0.70;;;7.90;99.90;;;;;;5132846;27;20126;-66
2021/09/30 05:22:42;;;;;;;4.53;1.67;;;7.90;99.90;;;;;;5143147;27;20034;-67
2021/09/30 05:25:08;;;;;;;1.10;0.85;;;8.00;99.90;;;;;;5131149;27;20046;-65
2021/09/30 05:27:33;;;;;;;0.80;0.80;;;7.90;99.90;;;;;;5143744;27;20023;-65
2021/09/30 05:29:59;;;;;;;0.70;0.70;;;7.80;99.90;;;;;;5150434;27;20035;-65
2021/09/30 05:32:24;;;;;;;1.27;1.00;;;7.80;99.90;;;;;;5139991;27;20110;-65
2021/09/30 05:34:50;;;;;;;1.13;1.02;;;7.80;99.90;;;;;;5152555;27;20469;-65
2021/09/30 05:37:16;;;;;;;0.70;0.70;;;7.90;99.90;;;;;;5151805;27;20049;-65
2021/09/30 05:39:41;;;;;;;2.10;0.95;;;7.90;99.90;;;;;;5126734;27;20133;-65
2021/09/30 05:42:07;;;;;;;0.80;0.80;;;7.90;99.90;;;;;;5139451;27;20029;-65
2021/09/30 05:44:33;;;;;;;1.08;0.98;;;7.90;99.90;;;;;;5128949;27;20030;-65
2021/09/30 05:46:59;;;;;;;1.15;0.85;;;7.40;99.90;;;;;;5137743;27;20091;-65
2021/09/30 05:49:24;;;;;;;2.05;1.20;;;7.80;99.90;;;;;;5137493;27;20023;-65
2021/09/30 05:51:50;;;;;;;0.88;0.80;;;7.90;99.90;;;;;;5144245;27;20073;-65
2021/09/30 05:54:16;;;;;;;0.70;0.70;;;7.90;99.90;;;;;;5127097;27;20470;-65
2021/09/30 05:56:42;;;;;;;0.82;0.68;;;7.90;99.90;;;;;;5136048;27;20027;-64
2021/09/30 05:59:08;;;;;;;1.30;0.88;;;8.00;99.90;;;;;;5145173;27;20122;-65
2021/09/30 06:14:32;;;;;;;0.82;0.80;;;8.30;99.90;;;;;;5130703;27;20019;-65
2021/09/30 06:16:57;;;;;;;1.02;1.00;;;8.30;99.90;;;;;;5132986;27;20466;-65
2021/09/30 06:19:23;;;;;;;1.52;1.02;;;8.40;99.90;;;;;;5132521;27;20031;-66
2021/09/30 06:21:51;;;;;;;2.05;1.00;;;8.40;99.90;;;;;;5132662;27;20031;-65
2021/09/30 06:24:19;;;;;;;4.03;1.60;;;8.30;99.90;;;;;;5130793;27;20363;-65
2021/09/30 06:26:45;;;;;;;0.70;0.70;;;8.40;99.90;;;;;;5131706;27;20020;-65
2021/09/30 06:29:11;;;;;;;3.03;1.17;;;8.50;99.90;;;;;;5145328;27;20093;-65
2021/09/30 06:31:37;;;;;;;2.42;1.17;;;8.60;99.90;;;;;;5140938;27;20018;-65
2021/09/30 06:34:03;;;;;;;1.67;1.00;;;8.60;99.90;;;;;;5132598;27;20042;-65
2021/09/30 06:36:29;;;;;;;0.60;0.60;;;8.70;99.90;;;;;;5105308;28;20048;-65
2021/09/30 06:38:54;;;;;;;0.60;0.60;;;8.70;99.90;;;;;;5093918;28;20081;-65
2021/09/30 06:41:20;;;;;;;0.77;0.77;;;8.80;99.90;;;;;;5090024;28;20016;-65
2021/09/30 06:43:45;;;;;;;0.70;0.70;;;8.80;99.90;;;;;;5092068;28;20430;-65
2021/09/30 06:46:11;;;;;;;1.75;1.13;;;8.80;99.90;;;;;;5095055;28;20020;-64
2021/09/30 06:48:37;;;;;;;1.15;0.85;;;8.80;99.90;;;;;;5098952;28;20054;-65
2021/09/30 06:51:03;;;;;;;2.40;1.05;;;8.90;99.90;;;;;;5095413;28;20019;-65
2021/09/30 06:53:29;;;;;;;1.98;1.08;;;9.10;99.90;;;;;;5093205;28;20035;-65
2021/09/30 06:56:18;;;;;;;3.88;1.25;;;9.10;99.90;;;;;;5106977;28;20023;-65
2021/09/30 06:58:43;;;;;;;1.30;0.90;;;9.10;99.90;;;;;;5092824;28;20051;-65
2021/09/30 07:01:10;;;;;;;0.60;0.60;;;9.20;99.90;;;;;;5094071;28;20111;-65
2021/09/30 07:03:35;;;;;;;0.93;0.88;;;9.30;99.90;;;;;;5090876;28;20043;-65
2021/09/30 07:06:01;;;;;;;1.40;0.98;;;9.40;99.90;;;;;;5099855;28;20404;-65
2021/09/30 07:08:27;;;;;;;0.50;0.50;;;9.50;99.90;;;;;;5098015;28;20597;-65
2021/09/30 07:10:53;;;;;;;0.70;0.70;;;9.50;99.90;;;;;;5088953;28;20421;-65
2021/09/30 07:13:18;;;;;;;1.45;0.73;;;9.60;99.90;;;;;;5099324;28;20024;-65
2021/09/30 07:15:44;;;;;;;0.77;0.70;;;9.70;99.90;;;;;;5102258;28;20027;-65
2021/09/30 07:18:18;;;;;;;1.00;0.75;;;9.70;99.90;;;;;;5093554;28;20028;-65
2021/09/30 07:20:44;;;;;;;1.55;0.95;;;9.70;99.90;;;;;;5091057;28;20066;-65
2021/09/30 07:23:09;;;;;;;0.60;0.60;;;9.80;99.90;;;;;;5092370;28;20062;-65
2021/09/30 07:25:35;;;;;;;2.92;1.05;;;10.00;99.90;;;;;;5093403;28;20074;-65
2021/09/30 07:28:00;;;;;;;1.05;0.77;;;9.90;99.90;;;;;;5091826;28;20359;-65
2021/09/30 07:30:26;;;;;;;0.80;0.60;;;6.80;99.90;;;;;;5103033;28;20024;-65
2021/09/30 07:32:52;;;;;;;1.73;1.10;;;10.10;99.90;;;;;;5095911;28;20026;-65
2021/09/30 07:35:17;;;;;;;1.65;1.05;;;10.10;99.90;;;;;;5095544;28;20116;-65
2021/09/30 07:37:45;;;;;;;1.23;0.80;;;10.20;99.90;;;;;;5133390;27;20051;-65
2021/09/30 07:40:11;;;;;;;1.85;0.88;;;10.20;99.90;;;;;;5146148;27;20080;-66
2021/09/30 07:42:37;;;;;;;0.52;0.52;;;10.30;99.90;;;;;;5135429;27;20117;-66
2021/09/30 07:45:03;;;;;;;0.82;0.70;;;10.30;99.90;;;;;;5142839;27;20446;-66
2021/09/30 07:47:29;;;;;;;1.15;0.95;;;10.50;99.90;;;;;;5136404;27;20115;-66
2021/09/30 07:49:55;;;;;;;0.73;0.73;;;10.50;99.90;;;;;;5140000;27;20105;-66
2021/09/30 07:52:20;;;;;;;1.60;1.02;;;10.60;99.90;;;;;;5150322;27;20038;-66
2021/09/30 07:54:49;;;;;;;0.60;0.60;;;10.70;99.90;;;;;;5153418;27;20485;-66
2021/09/30 07:57:15;;;;;;;0.60;0.60;;;10.70;99.90;;;;;;5151820;27;20044;-66
2021/09/30 07:59:41;;;;;;;2.67;0.82;;;11.10;99.90;;;;;;5153112;27;20030;-66
2021/09/30 08:02:07;;;;;;;0.52;0.52;;;10.90;99.90;;;;;;5153663;27;20011;-66
2021/09/30 08:04:32;;;;;;;0.63;0.63;;;11.00;99.90;;;;;;5153707;27;20026;-66
2021/09/30 08:06:58;;;;;;;1.42;0.77;;;11.10;99.90;;;;;;5154073;27;20075;-66
2021/09/30 08:09:24;;;;;;;2.47;0.90;;;11.20;99.90;;;;;;5141484;27;20035;-67
2021/09/30 08:11:49;;;;;;;0.85;0.80;;;11.20;99.90;;;;;;5141608;27;20017;-66
2021/09/30 08:14:15;;;;;;;0.90;0.85;;;11.30;99.90;;;;;;5153012;27;20034;-66
2021/09/30 08:16:41;;;;;;;1.38;0.80;;;11.60;99.90;;;;;;5137746;27;20098;-66
2021/09/30 08:19:06;;;;;;;3.28;1.40;;;11.50;99.90;;;;;;5143603;27;20026;-66
2021/09/30 08:21:32;;;;;;;0.75;0.75;;;11.70;99.90;;;;;;5149591;27;20118;-66
2021/09/30 08:23:58;;;;;;;0.50;0.50;;;12.10;99.90;;;;;;5142404;27;20054;-66
2021/09/30 08:26:24;;;;;;;2.25;0.88;;;12.40;99.90;;;;;;5135645;27;20065;-66
2021/09/30 08:28:52;;;;;;;2.08;0.70;;;12.90;99.90;;;;;;5151197;27;20026;-66
2021/09/30 08:31:20;;;;;;;0.50;0.50;;;13.20;99.90;;;;;;5146901;27;20030;-66
2021/09/30 08:33:47;;;;;;;0.60;0.60;;;13.20;99.90;;;;;;5134769;27;20113;-66
2021/09/30 08:36:13;;;;;;;0.80;0.60;;;13.80;99.90;;;;;;5125395;27;20062;-66
2021/09/30 08:38:41;;;;;;;0.60;0.60;;;14.10;99.90;;;;;;5138054;27;20065;-66
2021/09/30 08:41:08;;;;;;;0.60;0.60;;;14.00;99.90;;;;;;5134777;27;20024;-66
2021/09/30 08:43:34;;;;;;;1.10;0.68;;;14.00;99.90;;;;;;5114075;27;20023;-66
2021/09/30 08:46:00;;;;;;;2.08;0.95;;;14.80;99.90;;;;;;5132676;27;20625;-66
2021/09/30 08:48:25;;;;;;;0.55;0.50;;;15.70;99.90;;;;;;5137448;27;20065;-67
2021/09/30 08:50:51;;;;;;;0.57;0.57;;;16.60;99.90;;;;;;5130815;27;20030;-66
2021/09/30 08:53:17;;;;;;;0.50;0.50;;;16.70;99.90;;;;;;5140209;27;20094;-66
2021/09/30 08:55:43;;;;;;;0.50;0.50;;;16.50;99.90;;;;;;5116657;27;20023;-66
2021/09/30 08:58:09;;;;;;;0.47;0.47;;;16.70;99.90;;;;;;5136522;27;20030;-66
2021/09/30 09:00:38;;;;;;;1.58;0.68;;;15.90;99.90;;;;;;5139637;27;20025;-66
2021/09/30 09:03:04;;;;;;;1.58;0.90;;;15.80;99.90;;;;;;5143235;27;20019;-67
2021/09/30 09:05:29;;;;;;;0.50;0.50;;;15.80;99.90;;;;;;5134013;27;20068;-67
2021/09/30 09:08:00;;;;;;;1.45;0.82;;;15.40;99.90;;;;;;5132332;27;20023;-66
2021/09/30 09:10:40;;;;;;;0.90;0.50;;;15.30;99.90;;;;;;5133018;27;20048;-66
2021/09/30 09:13:13;;;;;;;1.25;0.93;;;15.40;99.90;;;;;;5130934;27;20110;-67
2021/09/30 09:15:57;;;;;;;0.65;0.57;;;15.80;99.90;;;;;;5117085;27;20043;-66
2021/09/30 09:18:34;;;;;;;0.52;0.52;;;16.10;99.90;;;;;;5144937;27;20033;-66
2021/09/30 09:21:05;;;;;;;0.50;0.50;;;16.30;99.90;;;;;;5133706;27;20042;-67
2021/09/30 09:23:33;;;;;;;0.70;0.70;;;16.40;99.90;;;;;;5142998;27;20042;-67
2021/09/30 09:26:14;;;;;;;0.43;0.43;;;16.90;99.90;;;;;;5140038;27;20031;-67
2021/09/30 09:29:02;;;;;;;0.40;0.40;;;16.90;99.90;;;;;;5133056;27;20043;-67
2021/09/30 09:31:33;;;;;;;1.65;0.80;;;16.60;99.90;;;;;;5143192;27;20031;-67
2021/09/30 09:34:20;;;;;;;0.85;0.60;;;16.40;99.90;;;;;;5150674;27;20022;-67
2021/09/30 09:36:49;;;;;;;0.40;0.40;;;16.40;99.90;;;;;;5150751;27;20087;-67
2021/09/30 09:39:16;;;;;;;0.60;0.60;;;16.60;99.90;;;;;;5148366;27;20055;-67
2021/09/30 09:41:42;;;;;;;0.40;0.40;;;17.20;99.90;;;;;;5139620;27;20044;-67
2021/09/30 09:44:08;;;;;;;0.40;0.40;;;17.60;99.70;;;;;;5137355;27;20015;-67
2021/09/30 09:46:40;;;;;;;0.57;0.57;;;17.40;99.60;;;;;;5141210;27;20030;-67
2021/09/30 09:49:19;;;;;;;0.50;0.50;;;17.60;99.30;;;;;;5139044;27;20026;-67
2021/09/30 09:51:51;;;;;;;1.52;1.35;;;17.80;98.00;;;;;;5149508;27;20023;-67
2021/09/30 09:54:19;;;;;;;0.50;0.50;;;17.40;98.20;;;;;;5148724;27;20717;-67
2021/09/30 09:56:45;;;;;;;0.40;0.40;;;17.40;98.60;;;;;;5147929;27;20070;-67
2021/09/30 09:59:11;;;;;;;0.70;0.60;;;17.50;99.30;;;;;;5147154;27;20030;-67
2021/09/30 10:01:39;;;;;;;1.08;0.63;;;17.70;99.60;;;;;;5145832;27;20023;-67
2021/09/30 10:04:05;;;;;;;1.38;0.88;;;17.60;98.60;;;;;;5142400;27;20018;-67
2021/09/30 10:06:33;;;;;;;0.40;0.40;;;17.80;98.80;;;;;;5146510;27;20023;-67
2021/09/30 10:09:01;;;;;;;0.90;0.50;;;18.40;97.40;;;;;;5117674;27;20031;-67
2021/09/30 10:11:27;;;;;;;0.45;0.40;;;17.00;98.30;;;;;;5143548;27;20030;-66
2021/09/30 10:13:58;;;;;;;1.10;0.70;;;17.20;99.30;;;;;;5136671;27;20040;-67
2021/09/30 10:16:26;;;;;;;0.90;0.55;;;17.20;99.50;;;;;;5137123;27;20546;-67
2021/09/30 10:18:54;;;;;;;1.77;0.70;;;17.60;98.30;;;;;;5118591;27;20026;-67
2021/09/30 10:21:20;;;;;;;0.65;0.60;;;17.70;98.00;;;;;;5135758;27;20022;-67
2021/09/30 10:23:52;;;;;;;1.25;0.57;;;16.90;98.40;;;;;;5141861;27;20023;-67
2021/09/30 10:26:47;;;;;;;0.80;0.60;;;16.90;99.40;;;;;;5140080;27;20018;-67
2021/09/30 10:29:44;;;;;;;0.60;0.60;;;16.40;99.80;;;;;;5117228;27;20091;-67
2021/09/30 10:32:11;;;;;;;0.75;0.65;;;16.60;99.20;;;;;;5122894;27;20183;-66
2021/09/30 10:34:41;;;;;;;0.88;0.70;;;16.40;99.10;;;;;;5138208;27;20027;-66
2021/09/30 10:37:31;;;;;;;5.03;0.80;;;16.50;99.50;;;;;;5139818;27;20053;-66
2021/09/30 10:40:19;;;;;;;1.00;0.80;;;15.10;99.90;;;;;;5144371;27;20019;-67
2021/09/30 10:42:45;;;;;;;0.65;0.60;;;14.90;99.90;;;;;;5138269;27;20015;-66
2021/09/30 10:45:13;;;;;;;3.42;0.82;;;14.90;99.90;;;;;;5140474;27;20134;-66
2021/09/30 10:47:39;;;;;;;0.75;0.70;;;15.00;99.90;;;;;;5134540;27;20027;-66
2021/09/30 10:50:06;;;;;;;0.50;0.50;;;15.60;99.90;;;;;;5137483;27;20030;-66
2021/09/30 10:52:35;;;;;;;2.10;0.98;;;15.50;99.90;;;;;;5136105;27;20022;-66
2021/09/30 10:55:05;;;;;;;3.05;0.93;;;15.50;99.90;;;;;;5131710;27;20950;-66
2021/09/30 10:57:37;;;;;;;;;;;15.90;99.90;;;;;;5116359;27;20016;-66
2021/09/30 11:00:10;;;;;;;1.85;0.68;;;18.20;96.90;;;;;;5140773;27;19914;-67
2021/09/30 11:03:09;;;;;;;1.45;0.68;;;18.30;96.80;;;;;;5141400;27;20027;-66
2021/09/30 11:05:37;;;;;;;0.47;0.47;;;17.70;95.50;;;;;;5140179;27;20013;-66
2021/09/30 11:08:25;;;;;;;0.55;0.55;;;18.40;96.10;;;;;;5138229;27;20023;-66
2021/09/30 11:13:30;;;;;;;1.00;0.70;;;18.50;94.80;;;;;;5137155;27;20034;-66
2021/09/30 11:15:59;;;;;;;1.80;0.70;;;19.60;93.70;;;;;;5133474;27;20053;-67
2021/09/30 11:18:49;;;;;;;0.80;0.55;;;19.20;92.60;;;;;;5129330;27;20092;-67
2021/09/30 11:24:00;;;;;;;1.70;0.90;;;18.70;92.10;;;;;;5148044;27;20077;-66
2021/09/30 11:26:28;;;;;;;0.85;0.55;;;20.10;90.90;;;;;;5149741;27;20028;-66
2021/09/30 11:29:15;;;;;;;1.73;0.60;;;19.80;89.30;;;;;;5152502;27;20081;-66
2021/09/30 11:31:41;;;;;;;0.70;0.60;;;18.80;90.80;;;;;;5133370;27;20023;-67
2021/09/30 11:34:16;;;;;;;1.55;0.65;;;20.20;90.00;;;;;;5127455;27;20603;-67
2021/09/30 11:36:42;;;;;;;0.73;0.50;;;20.10;89.70;;;;;;5138289;27;20092;-67
2021/09/30 11:39:09;;;;;;;1.75;0.82;;;20.70;89.80;;;;;;5121399;27;20158;-67
2021/09/30 11:41:36;;;;;;;1.63;0.90;;;20.10;87.50;;;;;;5134711;27;20022;-67
2021/09/30 11:44:03;;;;;;;0.98;0.57;;;18.70;88.70;;;;;;5158692;27;20023;-67
2021/09/30 11:46:33;;;;;;;1.10;0.65;;;18.40;90.80;;;;;;5135524;27;20020;-67
2021/09/30 11:49:13;;;;;;;0.52;0.52;;;17.40;91.70;;;;;;5158669;27;20030;-67
2021/09/30 11:51:42;;;;;;;2.83;1.17;;;17.70;92.20;;;;;;5146652;27;20382;-67
2021/09/30 11:54:13;;;;;;;2.63;0.65;;;17.10;92.90;;;;;;5122592;27;20022;-67
2021/09/30 11:56:41;;;;;;;2.00;0.73;;;17.80;92.90;;;;;;5145225;27;20072;-67
2021/09/30 11:59:08;;;;;;;0.77;0.50;;;17.90;93.00;;;;;;5124722;27;20065;-67
2021/09/30 12:01:35;;;;;;;1.15;0.70;;;18.20;91.60;;;;;;5152927;27;20011;-67
2021/09/30 12:04:02;;;;;;;0.60;0.60;;;17.50;92.30;;;;;;5122524;27;20396;-67
2021/09/30 12:06:44;;;;;;;0.65;0.50;;;17.40;91.80;;;;;;5146376;27;20023;-66
2021/09/30 12:09:12;;;;;;;0.52;0.52;;;17.80;91.10;;;;;;5140447;27;20070;-67
2021/09/30 12:11:39;;;;;;;0.50;0.50;;;17.50;89.90;;;;;;5148284;27;20031;-67
2021/09/30 12:14:07;;;;;;;0.88;0.60;;;17.50;90.50;;;;;;5132555;27;20412;-66
2021/09/30 12:16:33;;;;;;;0.40;0.40;;;17.80;90.90;;;;;;5151340;27;20023;-66
2021/09/30 12:19:04;;;;;;;0.40;0.40;;;17.90;90.60;;;;;;5151228;27;20107;-66
2021/09/30 12:21:40;;;;;;;0.50;0.50;;;18.10;91.20;;;;;;5128157;27;20023;-66
2021/09/30 12:24:07;;;;;;;0.75;0.60;;;19.50;89.20;;;;;;5143582;27;20071;-66
2021/09/30 12:26:34;;;;;;;0.60;0.60;;;19.30;88.50;;;;;;5126649;27;20015;-66
2021/09/30 12:29:00;;;;;;;0.45;0.45;;;20.40;87.80;;;;;;5147826;27;20427;-67
2021/09/30 12:31:27;;;;;;;0.90;0.65;;;20.50;83.00;;;;;;5156935;27;20403;-67
2021/09/30 12:33:53;;;;;;;0.45;0.45;;;20.60;85.10;;;;;;5136133;27;20019;-66
2021/09/30 12:36:19;;;;;;;0.38;0.38;;;20.00;81.10;;;;;;5148731;27;20053;-66
2021/09/30 12:39:01;;;;;;;0.60;0.52;;;19.60;81.80;;;;;;5143239;27;20031;-66
2021/09/30 12:41:30;;;;;;;0.40;0.40;;;18.70;85.10;;;;;;5132598;27;20025;-66
2021/09/30 12:44:10;;;;;;;0.40;0.40;;;17.60;88.10;;;;;;5124973;27;20023;-66
2021/09/30 12:46:51;;;;;;;0.68;0.55;;;18.00;89.50;;;;;;5156208;27;20026;-67
2021/09/30 12:49:20;;;;;;;0.40;0.40;;;20.10;85.10;;;;;;5141403;27;20473;-67
2021/09/30 12:51:46;;;;;;;0.30;0.30;;;21.40;84.40;;;;;;5134303;27;20027;-67
2021/09/30 12:54:12;;;;;;;0.73;0.70;;;22.30;80.20;;;;;;5148244;27;20408;-67
2021/09/30 12:56:38;;;;;;;0.85;0.60;;;22.00;82.00;;;;;;5139439;27;20031;-67
2021/09/30 12:59:11;;;;;;;0.55;0.50;;;21.40;79.60;;;;;;5160142;27;20018;-67
2021/09/30 13:01:37;;;;;;;0.50;0.50;;;21.50;80.40;;;;;;5124958;27;20023;-67
2021/09/30 13:04:23;;;;;;;0.43;0.43;;;21.80;81.30;;;;;;5119004;27;20027;-67
2021/09/30 13:06:56;;;;;;;1.73;0.73;;;19.80;85.50;;;;;;5151746;27;20107;-67
2021/09/30 13:09:24;;;;;;;0.50;0.50;;;19.30;81.70;;;;;;5138242;27;20456;-66
2021/09/30 13:11:55;;;;;;;1.10;0.65;;;18.60;84.30;;;;;;5132714;27;20034;-66
2021/09/30 13:14:35;;;;;;;2.03;0.77;;;19.30;85.30;;;;;;5147465;27;20482;-67
2021/09/30 13:17:18;;;;;;;0.40;0.40;;;19.30;84.80;;;;;;5124380;27;20019;-67
2021/09/30 13:19:57;;;;;;;0.40;0.40;;;20.00;84.00;;;;;;5122710;27;20092;-67
2021/09/30 13:22:33;;;;;;;1.60;0.63;;;20.10;81.20;;;;;;5120178;27;20022;-67
2021/09/30 13:25:05;;;;;;;3.90;1.08;;;20.50;78.30;;;;;;5149050;27;20108;-67
2021/09/30 13:27:35;;;;;;;0.43;0.43;;;19.10;82.60;;;;;;5150196;27;20015;-66
2021/09/30 13:30:06;;;;;;;0.40;0.40;;;19.00;81.40;;;;;;5146837;27;20379;-66
2021/09/30 13:32:32;;;;;;;0.40;0.40;;;18.80;82.10;;;;;;5148040;27;20056;-66
2021/09/30 13:34:59;;;;;;;0.35;0.35;;;18.70;82.10;;;;;;5143195;27;20058;-66
2021/09/30 13:37:26;;;;;;;0.40;0.40;;;18.80;83.10;;;;;;5121850;27;20106;-66
2021/09/30 13:39:57;;;;;;;1.85;0.55;;;18.80;83.50;;;;;;5147905;27;20910;-66
2021/09/30 13:42:24;;;;;;;0.63;0.50;;;18.90;90.00;;;;;;5152395;27;20389;-67
2021/09/30 13:44:50;;;;;;;0.50;0.50;;;18.70;84.90;;;;;;5118967;27;20015;-67
2021/09/30 13:47:16;;;;;;;1.75;0.60;;;18.30;85.80;;;;;;5130089;27;20021;-66
2021/09/30 13:49:41;;;;;;;0.50;0.50;;;18.10;86.60;;;;;;5146585;27;20038;-66
2021/09/30 13:52:07;;;;;;;0.52;0.50;;;19.40;84.00;;;;;;5140357;27;20087;-66
2021/09/30 13:54:33;;;;;;;0.43;0.43;;;19.60;83.00;;;;;;5141982;27;20018;-66
2021/09/30 13:56:59;;;;;;;1.17;0.50;;;19.70;81.60;;;;;;5138974;27;20376;-66
2021/09/30 13:59:24;;;;;;;0.60;0.60;;;19.20;80.40;;;;;;5150016;27;20019;-67
2021/09/30 14:01:51;;;;;;;0.70;0.70;;;18.80;82.90;;;;;;5147648;27;20076;-67
2021/09/30 14:04:17;;;;;;;1.13;0.70;;;18.70;84.40;;;;;;5147307;27;20370;-67
2021/09/30 14:06:43;;;;;;;0.55;0.50;;;18.40;84.40;;;;;;5156897;27;20111;-67
2021/09/30 14:09:08;;;;;;;0.55;0.50;;;17.50;87.50;;;;;;5150785;27;20022;-67
2021/09/30 14:11:34;;;;;;;2.13;0.73;;;16.70;88.60;;;;;;5142529;27;20031;-66
2021/09/30 14:14:00;;;;;;;0.63;0.50;;;16.50;90.10;;;;;;5141759;27;20030;-66
2021/09/30 14:16:25;;;;;;;2.65;0.70;;;16.50;90.40;;;;;;5138209;27;20022;-66
2021/09/30 14:18:52;;;;;;;5.38;1.30;;;16.30;90.50;;;;;;5137330;27;20015;-66
2021/09/30 14:21:18;;;;;;;2.40;0.80;;;16.20;90.80;;;;;;5124014;27;20023;-67
2021/09/30 14:23:45;;;;;;;0.60;0.60;;;15.80;91.20;;;;;;5144467;27;20019;-67
2021/09/30 14:26:11;;;;;;;0.85;0.70;;;15.90;91.80;;;;;;5134928;27;20015;-67
2021/09/30 14:28:37;;;;;;;1.17;0.60;;;16.00;91.60;;;;;;5117003;27;20126;-67
2021/09/30 14:31:03;;;;;;;0.75;0.47;;;16.50;90.60;;;;;;5150560;27;20037;-66
2021/09/30 14:33:32;;;;;;;0.40;0.40;;;16.70;90.50;;;;;;5134015;27;20489;-66
2021/09/30 14:35:58;;;;;;;0.40;0.40;;;16.60;90.10;;;;;;5148184;27;20035;-66
2021/09/30 14:38:24;;;;;;;0.43;0.43;;;16.50;90.40;;;;;;5145448;27;20051;-66
2021/09/30 14:40:51;;;;;;;0.40;0.40;;;16.40;91.10;;;;;;5136358;27;20054;-66
2021/09/30 14:43:20;;;;;;;0.50;0.50;;;16.30;90.60;;;;;;5116485;27;20054;-66
2021/09/30 14:45:46;;;;;;;1.65;0.60;;;16.30;91.50;;;;;;5134953;27;20563;-66
2021/09/30 14:48:12;;;;;;;0.70;0.63;;;16.60;90.90;;;;;;5149857;27;20097;-66
2021/09/30 14:50:39;;;;;;;0.50;0.50;;;16.80;91.70;;;;;;5128617;27;20521;-66
2021/09/30 14:53:06;;;;;;;2.78;0.75;;;16.70;91.40;;;;;;5141891;27;20419;-66
2021/09/30 14:55:32;;;;;;;1.95;0.60;;;16.90;91.80;;;;;;5151119;27;20441;-66
2021/09/30 14:57:58;;;;;;;0.93;0.55;;;16.60;91.20;;;;;;5125703;27;20102;-66
2021/09/30 15:00:24;;;;;;;1.50;0.73;;;16.40;92.70;;;;;;5115855;27;20031;-66
2021/09/30 15:02:49;;;;;;;2.28;1.00;;;16.50;93.00;;;;;;5141114;27;20052;-66
2021/09/30 15:05:15;;;;;;;2.97;0.75;;;16.90;93.00;;;;;;5136577;27;20019;-66
2021/09/30 15:07:42;;;;;;;2.22;0.77;;;16.60;92.70;;;;;;5151787;27;20023;-66
2021/09/30 15:10:08;;;;;;;0.93;0.60;;;16.60;93.60;;;;;;5145390;27;20015;-66
2021/09/30 15:12:34;;;;;;;0.80;0.68;;;16.60;92.80;;;;;;5143433;27;20015;-66
2021/09/30 15:14:59;;;;;;;0.85;0.70;;;16.60;93.70;;;;;;5160990;27;20044;-66
2021/09/30 15:17:28;;;;;;;0.88;0.52;;;16.50;93.00;;;;;;5166015;27;20496;-67
2021/09/30 15:22:36;;;;;;;0.75;0.70;;;16.50;94.20;;;;;;5144328;27;20055;-67
2021/09/30 15:25:02;;;;;;;0.73;0.52;;;16.40;94.20;;;;;;5146693;27;20110;-67
2021/09/30 15:27:28;;;;;;;0.45;0.45;;;16.60;94.30;;;;;;5164123;27;20534;-66
2021/09/30 15:29:53;;;;;;;0.40;0.40;;;16.80;94.40;;;;;;5144258;27;20113;-66
2021/09/30 15:32:19;;;;;;;1.23;0.73;;;16.60;94.00;;;;;;5149107;27;20114;-67
2021/09/30 15:34:45;;;;;;;0.80;0.52;;;16.70;94.60;;;;;;5152841;27;20477;-67
2021/09/30 15:37:11;;;;;;;1.38;0.70;;;16.50;93.70;;;;;;5139244;27;20050;-67
2021/09/30 15:39:36;;;;;;;0.57;0.50;;;16.30;94.70;;;;;;5145977;27;20059;-66
2021/09/30 15:42:02;;;;;;;1.50;0.65;;;16.30;94.80;;;;;;5146390;27;20072;-66
2021/09/30 15:44:30;;;;;;;1.08;0.55;;;16.30;95.80;;;;;;5138164;27;20458;-67
2021/09/30 15:46:55;;;;;;;0.77;0.50;;;16.20;95.00;;;;;;5145218;27;20163;-66
2021/09/30 15:49:21;;;;;;;0.63;0.47;;;16.00;94.90;;;;;;5153857;27;20098;-66
2021/09/30 15:51:47;;;;;;;1.38;0.55;;;15.90;95.10;;;;;;5131083;27;20747;-66
2021/09/30 15:54:13;;;;;;;1.45;0.63;;;16.00;95.80;;;;;;5134023;27;20026;-66
2021/09/30 15:56:39;;;;;;;0.52;0.50;;;15.90;96.30;;;;;;5146564;27;20038;-66